sensor_id;sensor_type;location;lat;lon;timestamp;P1;durP1;ratioP1;P2;durP2;ratioP2
46719;SDS011;32452;51.382;-0.002;2023-10-13T00:01:43;0.40;;;0.30;;
46719;SDS011;32452;51.382;-0.002;2023-10-13T00:04:29;1.55;;;0.50;;
46719;SDS011;32452;51.382;-0.002;2023-10-13T00:07:16;2.30;;;0.47;;
46719;SDS011;32452;51.382;-0.002;2023-10-13T00:10:03;0.30;;;0.30;;
46719;SDS011;32452;51.382;-0.002;2023-10-13T00:12:59;0.40;;;0.40;;
46719;SDS011;32452;51.382;-0.002;2023-10-13T00:15:57;0.80;;;0.45;;
46719;SDS011;32452;51.382;-0.002;2023-10-13T00:18:43;1.90;;;0.43;;
46719;SDS011;32452;51.382;-0.002;2023-10-13T00:21:29;1.65;;;0.50;;
46719;SDS011;32452;51.382;-0.002;2023-10-13T00:24:17;3.33;;;0.63;;
46719;SDS011;32452;51.382;-0.002;2023-10-13T00:27:08;3.10;;;0.38;;
46719;SDS011;32452;51.382;-0.002;2023-10-13T00:30:18;0.70;;;0.40;;
46719;SDS011;32452;51.382;-0.002;2023-10-13T00:33:07;1.73;;;0.35;;
46719;SDS011;32452;51.382;-0.002;2023-10-13T00:35:54;0.40;;;0.40;;
46719;SDS011;32452;51.382;-0.002;2023-10-13T00:38:42;1.98;;;0.50;;
46719;SDS011;32452;51.382;-0.002;2023-10-13T00:41:33;1.10;;;0.40;;
46719;SDS011;32452;51.382;-0.002;2023-10-13T00:44:41;0.75;;;0.60;;
46719;SDS011;32452;51.382;-0.002;2023-10-13T00:47:28;3.70;;;0.60;;
46719;SDS011;32452;51.382;-0.002;2023-10-13T00:50:23;2.42;;;0.80;;
46719;SDS011;32452;51.382;-0.002;2023-10-13T00:53:09;1.75;;;0.45;;
46719;SDS011;32452;51.382;-0.002;2023-10-13T00:55:54;1.88;;;0.40;;
46719;SDS011;32452;51.382;-0.002;2023-10-13T00:58:51;1.65;;;0.57;;
46719;SDS011;32452;51.382;-0.002;2023-10-13T01:01:37;1.58;;;0.30;;
46719;SDS011;32452;51.382;-0.002;2023-10-13T01:04:25;0.52;;;0.38;;
46719;SDS011;32452;51.382;-0.002;2023-10-13T01:07:15;1.55;;;0.40;;
46719;SDS011;32452;51.382;-0.002;2023-10-13T01:10:01;1.45;;;0.30;;
46719;SDS011;32452;51.382;-0.002;2023-10-13T01:12:49;0.60;;;0.30;;
46719;SDS011;32452;51.382;-0.002;2023-10-13T01:15:37;0.43;;;0.20;;
46719;SDS011;32452;51.382;-0.002;2023-10-13T01:18:23;0.98;;;0.25;;
46719;SDS011;32452;51.382;-0.002;2023-10-13T01:21:14;4.32;;;0.50;;
46719;SDS011;32452;51.382;-0.002;2023-10-13T01:24:01;2.22;;;0.57;;
46719;SDS011;32452;51.382;-0.002;2023-10-13T01:26:52;7.25;;;1.20;;
46719;SDS011;32452;51.382;-0.002;2023-10-13T01:29:38;8.85;;;1.60;;
46719;SDS011;32452;51.382;-0.002;2023-10-13T01:32:25;7.90;;;2.20;;
46719;SDS011;32452;51.382;-0.002;2023-10-13T01:35:11;11.88;;;2.63;;
46719;SDS011;32452;51.382;-0.002;2023-10-13T01:37:56;6.97;;;2.60;;
46719;SDS011;32452;51.382;-0.002;2023-10-13T01:40:42;9.82;;;3.00;;
46719;SDS011;32452;51.382;-0.002;2023-10-13T01:43:28;8.90;;;3.00;;
46719;SDS011;32452;51.382;-0.002;2023-10-13T01:46:14;14.18;;;3.72;;
46719;SDS011;32452;51.382;-0.002;2023-10-13T01:49:06;12.45;;;3.45;;
46719;SDS011;32452;51.382;-0.002;2023-10-13T01:51:53;11.82;;;4.85;;
46719;SDS011;32452;51.382;-0.002;2023-10-13T01:54:38;13.35;;;4.18;;
46719;SDS011;32452;51.382;-0.002;2023-10-13T01:57:25;12.63;;;4.10;;
46719;SDS011;32452;51.382;-0.002;2023-10-13T02:00:12;14.63;;;4.90;;
46719;SDS011;32452;51.382;-0.002;2023-10-13T02:03:05;20.00;;;5.35;;
46719;SDS011;32452;51.382;-0.002;2023-10-13T02:06:00;17.80;;;5.07;;
46719;SDS011;32452;51.382;-0.002;2023-10-13T02:08:49;14.15;;;3.83;;
46719;SDS011;32452;51.382;-0.002;2023-10-13T02:11:43;12.50;;;3.90;;
46719;SDS011;32452;51.382;-0.002;2023-10-13T02:14:32;16.30;;;4.72;;
46719;SDS011;32452;51.382;-0.002;2023-10-13T02:17:18;16.83;;;4.78;;
46719;SDS011;32452;51.382;-0.002;2023-10-13T02:20:06;17.52;;;4.93;;
46719;SDS011;32452;51.382;-0.002;2023-10-13T02:23:01;12.93;;;4.32;;
46719;SDS011;32452;51.382;-0.002;2023-10-13T02:25:46;17.20;;;4.93;;
46719;SDS011;32452;51.382;-0.002;2023-10-13T02:28:32;15.15;;;4.53;;
46719;SDS011;32452;51.382;-0.002;2023-10-13T02:31:20;14.88;;;5.55;;
46719;SDS011;32452;51.382;-0.002;2023-10-13T02:34:09;21.15;;;6.07;;
46719;SDS011;32452;51.382;-0.002;2023-10-13T02:36:57;16.38;;;5.50;;
46719;SDS011;32452;51.382;-0.002;2023-10-13T02:39:42;17.55;;;5.72;;
46719;SDS011;32452;51.382;-0.002;2023-10-13T02:42:28;17.27;;;5.40;;
46719;SDS011;32452;51.382;-0.002;2023-10-13T02:45:13;19.73;;;6.85;;
46719;SDS011;32452;51.382;-0.002;2023-10-13T02:48:00;25.40;;;6.75;;
46719;SDS011;32452;51.382;-0.002;2023-10-13T02:50:57;21.73;;;6.45;;
46719;SDS011;32452;51.382;-0.002;2023-10-13T02:53:47;27.95;;;8.50;;
46719;SDS011;32452;51.382;-0.002;2023-10-13T02:56:37;20.02;;;6.90;;
46719;SDS011;32452;51.382;-0.002;2023-10-13T02:59:33;18.55;;;6.28;;
46719;SDS011;32452;51.382;-0.002;2023-10-13T03:02:25;22.92;;;7.53;;
46719;SDS011;32452;51.382;-0.002;2023-10-13T03:05:13;20.50;;;6.13;;
46719;SDS011;32452;51.382;-0.002;2023-10-13T03:07:58;18.42;;;6.47;;
46719;SDS011;32452;51.382;-0.002;2023-10-13T03:10:49;20.20;;;7.85;;
46719;SDS011;32452;51.382;-0.002;2023-10-13T03:13:39;21.65;;;6.93;;
46719;SDS011;32452;51.382;-0.002;2023-10-13T03:16:30;24.83;;;7.53;;
46719;SDS011;32452;51.382;-0.002;2023-10-13T03:19:16;24.05;;;8.45;;
46719;SDS011;32452;51.382;-0.002;2023-10-13T03:22:05;22.45;;;8.02;;
46719;SDS011;32452;51.382;-0.002;2023-10-13T03:24:58;25.15;;;8.40;;
46719;SDS011;32452;51.382;-0.002;2023-10-13T03:27:51;25.67;;;7.47;;
46719;SDS011;32452;51.382;-0.002;2023-10-13T03:30:37;26.95;;;8.48;;
46719;SDS011;32452;51.382;-0.002;2023-10-13T03:33:28;25.35;;;8.30;;
46719;SDS011;32452;51.382;-0.002;2023-10-13T03:36:17;22.08;;;8.63;;
46719;SDS011;32452;51.382;-0.002;2023-10-13T03:39:23;23.48;;;8.23;;
46719;SDS011;32452;51.382;-0.002;2023-10-13T03:42:15;26.63;;;7.88;;
46719;SDS011;32452;51.382;-0.002;2023-10-13T03:45:06;24.15;;;8.48;;
46719;SDS011;32452;51.382;-0.002;2023-10-13T03:47:55;24.05;;;7.15;;
46719;SDS011;32452;51.382;-0.002;2023-10-13T03:50:40;18.35;;;6.13;;
46719;SDS011;32452;51.382;-0.002;2023-10-13T03:53:46;23.05;;;6.80;;
46719;SDS011;32452;51.382;-0.002;2023-10-13T03:56:39;18.25;;;6.57;;
46719;SDS011;32452;51.382;-0.002;2023-10-13T03:59:25;21.48;;;6.75;;
46719;SDS011;32452;51.382;-0.002;2023-10-13T04:02:19;19.30;;;7.30;;
46719;SDS011;32452;51.382;-0.002;2023-10-13T04:05:09;21.35;;;6.72;;
46719;SDS011;32452;51.382;-0.002;2023-10-13T04:07:54;16.95;;;6.00;;
46719;SDS011;32452;51.382;-0.002;2023-10-13T04:11:06;18.77;;;5.95;;
46719;SDS011;32452;51.382;-0.002;2023-10-13T04:14:10;15.73;;;5.88;;
46719;SDS011;32452;51.382;-0.002;2023-10-13T04:17:30;17.95;;;5.55;;
46719;SDS011;32452;51.382;-0.002;2023-10-13T04:20:25;25.05;;;7.28;;
46719;SDS011;32452;51.382;-0.002;2023-10-13T04:23:17;18.27;;;6.25;;
46719;SDS011;32452;51.382;-0.002;2023-10-13T04:26:05;23.58;;;6.75;;
46719;SDS011;32452;51.382;-0.002;2023-10-13T04:29:06;16.90;;;5.72;;
46719;SDS011;32452;51.382;-0.002;2023-10-13T04:31:56;17.25;;;5.70;;
46719;SDS011;32452;51.382;-0.002;2023-10-13T04:34:45;15.73;;;6.32;;
46719;SDS011;32452;51.382;-0.002;2023-10-13T04:37:31;19.15;;;6.57;;
46719;SDS011;32452;51.382;-0.002;2023-10-13T04:40:33;24.42;;;6.35;;
46719;SDS011;32452;51.382;-0.002;2023-10-13T04:43:21;20.58;;;6.65;;
46719;SDS011;32452;51.382;-0.002;2023-10-13T04:46:28;19.50;;;6.63;;
46719;SDS011;32452;51.382;-0.002;2023-10-13T04:49:21;17.07;;;5.57;;
46719;SDS011;32452;51.382;-0.002;2023-10-13T04:52:29;22.42;;;6.63;;
46719;SDS011;32452;51.382;-0.002;2023-10-13T04:55:43;21.08;;;6.63;;
46719;SDS011;32452;51.382;-0.002;2023-10-13T04:58:52;20.45;;;6.95;;
46719;SDS011;32452;51.382;-0.002;2023-10-13T05:01:56;16.13;;;5.88;;
46719;SDS011;32452;51.382;-0.002;2023-10-13T05:05:00;18.85;;;6.65;;
46719;SDS011;32452;51.382;-0.002;2023-10-13T05:07:51;23.48;;;5.82;;
46719;SDS011;32452;51.382;-0.002;2023-10-13T05:10:56;19.95;;;7.68;;
46719;SDS011;32452;51.382;-0.002;2023-10-13T05:14:20;25.50;;;6.10;;
46719;SDS011;32452;51.382;-0.002;2023-10-13T05:17:24;15.77;;;6.03;;
46719;SDS011;32452;51.382;-0.002;2023-10-13T05:20:28;19.92;;;6.60;;
46719;SDS011;32452;51.382;-0.002;2023-10-13T05:23:32;22.00;;;6.55;;
46719;SDS011;32452;51.382;-0.002;2023-10-13T05:26:35;19.75;;;6.63;;
46719;SDS011;32452;51.382;-0.002;2023-10-13T05:29:43;20.10;;;5.75;;
46719;SDS011;32452;51.382;-0.002;2023-10-13T05:32:49;19.88;;;6.07;;
46719;SDS011;32452;51.382;-0.002;2023-10-13T05:35:53;29.38;;;6.75;;
46719;SDS011;32452;51.382;-0.002;2023-10-13T05:38:57;27.48;;;7.45;;
46719;SDS011;32452;51.382;-0.002;2023-10-13T05:42:01;26.85;;;6.63;;
46719;SDS011;32452;51.382;-0.002;2023-10-13T05:45:25;24.63;;;6.35;;
46719;SDS011;32452;51.382;-0.002;2023-10-13T05:48:49;29.17;;;7.15;;
46719;SDS011;32452;51.382;-0.002;2023-10-13T05:51:44;21.55;;;6.55;;
46719;SDS011;32452;51.382;-0.002;2023-10-13T05:54:43;21.48;;;6.25;;
46719;SDS011;32452;51.382;-0.002;2023-10-13T05:57:47;24.33;;;6.60;;
46719;SDS011;32452;51.382;-0.002;2023-10-13T06:00:52;30.70;;;7.95;;
46719;SDS011;32452;51.382;-0.002;2023-10-13T06:03:57;23.70;;;6.05;;
46719;SDS011;32452;51.382;-0.002;2023-10-13T06:07:01;32.20;;;6.95;;
46719;SDS011;32452;51.382;-0.002;2023-10-13T06:10:05;28.67;;;8.95;;
46719;SDS011;32452;51.382;-0.002;2023-10-13T06:13:09;26.10;;;7.55;;
46719;SDS011;32452;51.382;-0.002;2023-10-13T06:16:14;29.45;;;6.90;;
46719;SDS011;32452;51.382;-0.002;2023-10-13T06:19:19;31.88;;;8.23;;
46719;SDS011;32452;51.382;-0.002;2023-10-13T06:22:24;29.70;;;7.38;;
46719;SDS011;32452;51.382;-0.002;2023-10-13T06:25:28;26.80;;;6.97;;
46719;SDS011;32452;51.382;-0.002;2023-10-13T06:28:32;27.17;;;7.93;;
46719;SDS011;32452;51.382;-0.002;2023-10-13T06:31:27;26.25;;;7.82;;
46719;SDS011;32452;51.382;-0.002;2023-10-13T06:34:13;36.17;;;8.43;;
46719;SDS011;32452;51.382;-0.002;2023-10-13T06:37:01;24.85;;;8.13;;
46719;SDS011;32452;51.382;-0.002;2023-10-13T06:39:48;30.83;;;8.00;;
46719;SDS011;32452;51.382;-0.002;2023-10-13T06:42:34;32.88;;;8.70;;
46719;SDS011;32452;51.382;-0.002;2023-10-13T06:45:20;24.75;;;7.50;;
46719;SDS011;32452;51.382;-0.002;2023-10-13T06:48:07;26.33;;;7.53;;
46719;SDS011;32452;51.382;-0.002;2023-10-13T06:50:57;22.38;;;6.63;;
46719;SDS011;32452;51.382;-0.002;2023-10-13T06:53:49;27.02;;;7.43;;
46719;SDS011;32452;51.382;-0.002;2023-10-13T06:56:41;24.15;;;7.00;;
46719;SDS011;32452;51.382;-0.002;2023-10-13T06:59:27;31.17;;;8.98;;
46719;SDS011;32452;51.382;-0.002;2023-10-13T07:02:17;31.50;;;7.90;;
46719;SDS011;32452;51.382;-0.002;2023-10-13T07:05:19;27.98;;;6.97;;
46719;SDS011;32452;51.382;-0.002;2023-10-13T07:08:05;27.00;;;6.95;;
46719;SDS011;32452;51.382;-0.002;2023-10-13T07:10:52;32.05;;;8.98;;
46719;SDS011;32452;51.382;-0.002;2023-10-13T07:13:59;24.95;;;7.03;;
46719;SDS011;32452;51.382;-0.002;2023-10-13T07:19:53;25.40;;;7.43;;
46719;SDS011;32452;51.382;-0.002;2023-10-13T07:22:41;27.35;;;7.35;;
46719;SDS011;32452;51.382;-0.002;2023-10-13T07:25:40;31.27;;;6.75;;
46719;SDS011;32452;51.382;-0.002;2023-10-13T07:28:26;22.00;;;8.38;;
46719;SDS011;32452;51.382;-0.002;2023-10-13T07:31:15;27.52;;;7.00;;
46719;SDS011;32452;51.382;-0.002;2023-10-13T07:34:01;28.08;;;7.28;;
46719;SDS011;32452;51.382;-0.002;2023-10-13T07:36:57;22.13;;;7.50;;
46719;SDS011;32452;51.382;-0.002;2023-10-13T07:39:46;21.67;;;6.25;;
46719;SDS011;32452;51.382;-0.002;2023-10-13T07:42:35;22.20;;;6.13;;
46719;SDS011;32452;51.382;-0.002;2023-10-13T07:45:25;25.85;;;6.85;;
46719;SDS011;32452;51.382;-0.002;2023-10-13T07:48:21;19.08;;;6.35;;
46719;SDS011;32452;51.382;-0.002;2023-10-13T07:51:07;25.15;;;7.80;;
46719;SDS011;32452;51.382;-0.002;2023-10-13T07:53:58;29.10;;;8.57;;
46719;SDS011;32452;51.382;-0.002;2023-10-13T07:56:52;23.48;;;7.55;;
46719;SDS011;32452;51.382;-0.002;2023-10-13T07:59:39;21.90;;;6.72;;
46719;SDS011;32452;51.382;-0.002;2023-10-13T08:02:32;21.58;;;6.68;;
46719;SDS011;32452;51.382;-0.002;2023-10-13T08:05:33;25.48;;;6.60;;
46719;SDS011;32452;51.382;-0.002;2023-10-13T08:08:38;28.10;;;7.70;;
46719;SDS011;32452;51.382;-0.002;2023-10-13T08:11:25;22.52;;;7.20;;
46719;SDS011;32452;51.382;-0.002;2023-10-13T08:14:20;17.75;;;5.82;;
46719;SDS011;32452;51.382;-0.002;2023-10-13T08:17:23;18.70;;;6.03;;
46719;SDS011;32452;51.382;-0.002;2023-10-13T08:20:16;18.70;;;5.85;;
46719;SDS011;32452;51.382;-0.002;2023-10-13T08:23:02;18.05;;;6.82;;
46719;SDS011;32452;51.382;-0.002;2023-10-13T08:26:00;16.33;;;5.40;;
46719;SDS011;32452;51.382;-0.002;2023-10-13T08:29:12;17.38;;;7.32;;
46719;SDS011;32452;51.382;-0.002;2023-10-13T08:32:04;21.25;;;7.32;;
46719;SDS011;32452;51.382;-0.002;2023-10-13T08:34:50;21.13;;;6.15;;
46719;SDS011;32452;51.382;-0.002;2023-10-13T08:37:38;16.30;;;6.65;;
46719;SDS011;32452;51.382;-0.002;2023-10-13T08:40:59;13.63;;;6.60;;
46719;SDS011;32452;51.382;-0.002;2023-10-13T08:43:45;19.77;;;6.68;;
46719;SDS011;32452;51.382;-0.002;2023-10-13T08:46:38;17.20;;;7.40;;
46719;SDS011;32452;51.382;-0.002;2023-10-13T08:49:49;19.50;;;7.93;;
46719;SDS011;32452;51.382;-0.002;2023-10-13T08:52:42;16.73;;;7.00;;
46719;SDS011;32452;51.382;-0.002;2023-10-13T08:55:31;18.30;;;7.22;;
46719;SDS011;32452;51.382;-0.002;2023-10-13T08:58:46;23.08;;;8.80;;
46719;SDS011;32452;51.382;-0.002;2023-10-13T09:01:39;19.15;;;7.63;;
46719;SDS011;32452;51.382;-0.002;2023-10-13T09:04:25;20.17;;;7.88;;
46719;SDS011;32452;51.382;-0.002;2023-10-13T09:07:19;21.85;;;7.03;;
46719;SDS011;32452;51.382;-0.002;2023-10-13T09:10:10;19.67;;;6.95;;
46719;SDS011;32452;51.382;-0.002;2023-10-13T09:13:18;21.17;;;7.60;;
46719;SDS011;32452;51.382;-0.002;2023-10-13T09:16:10;20.30;;;7.18;;
46719;SDS011;32452;51.382;-0.002;2023-10-13T09:19:18;18.88;;;7.40;;
46719;SDS011;32452;51.382;-0.002;2023-10-13T09:22:06;16.92;;;6.55;;
46719;SDS011;32452;51.382;-0.002;2023-10-13T09:24:53;16.55;;;7.75;;
46719;SDS011;32452;51.382;-0.002;2023-10-13T09:27:43;22.23;;;7.32;;
46719;SDS011;32452;51.382;-0.002;2023-10-13T09:30:29;19.80;;;7.40;;
46719;SDS011;32452;51.382;-0.002;2023-10-13T09:33:23;20.08;;;7.55;;
46719;SDS011;32452;51.382;-0.002;2023-10-13T09:36:25;17.88;;;6.95;;
46719;SDS011;32452;51.382;-0.002;2023-10-13T09:39:11;22.67;;;7.20;;
46719;SDS011;32452;51.382;-0.002;2023-10-13T09:42:11;17.63;;;6.55;;
46719;SDS011;32452;51.382;-0.002;2023-10-13T09:45:02;17.75;;;6.03;;
46719;SDS011;32452;51.382;-0.002;2023-10-13T09:47:49;14.98;;;6.80;;
46719;SDS011;32452;51.382;-0.002;2023-10-13T09:50:37;15.77;;;6.38;;
46719;SDS011;32452;51.382;-0.002;2023-10-13T09:53:30;12.63;;;4.97;;
46719;SDS011;32452;51.382;-0.002;2023-10-13T09:56:21;13.43;;;6.75;;
46719;SDS011;32452;51.382;-0.002;2023-10-13T09:59:14;14.70;;;5.47;;
46719;SDS011;32452;51.382;-0.002;2023-10-13T10:02:01;14.18;;;5.15;;
46719;SDS011;32452;51.382;-0.002;2023-10-13T10:04:55;14.10;;;5.05;;
46719;SDS011;32452;51.382;-0.002;2023-10-13T10:07:58;15.52;;;6.03;;
46719;SDS011;32452;51.382;-0.002;2023-10-13T10:10:51;15.77;;;5.82;;
46719;SDS011;32452;51.382;-0.002;2023-10-13T10:13:52;13.38;;;5.72;;
46719;SDS011;32452;51.382;-0.002;2023-10-13T10:17:04;13.30;;;5.63;;
46719;SDS011;32452;51.382;-0.002;2023-10-13T10:19:55;13.55;;;5.43;;
46719;SDS011;32452;51.382;-0.002;2023-10-13T10:22:44;15.35;;;5.22;;
46719;SDS011;32452;51.382;-0.002;2023-10-13T10:25:44;14.43;;;5.38;;
46719;SDS011;32452;51.382;-0.002;2023-10-13T10:28:35;16.13;;;5.47;;
46719;SDS011;32452;51.382;-0.002;2023-10-13T10:31:31;20.45;;;6.85;;
46719;SDS011;32452;51.382;-0.002;2023-10-13T10:34:20;16.10;;;5.63;;
46719;SDS011;32452;51.382;-0.002;2023-10-13T10:37:17;14.73;;;5.60;;
46719;SDS011;32452;51.382;-0.002;2023-10-13T10:40:10;16.45;;;6.20;;
46719;SDS011;32452;51.382;-0.002;2023-10-13T10:43:05;14.63;;;5.72;;
46719;SDS011;32452;51.382;-0.002;2023-10-13T10:46:47;14.20;;;5.03;;
46719;SDS011;32452;51.382;-0.002;2023-10-13T10:49:27;15.30;;;5.70;;
46719;SDS011;32452;51.382;-0.002;2023-10-13T10:52:15;12.43;;;5.47;;
46719;SDS011;32452;51.382;-0.002;2023-10-13T10:55:05;15.40;;;6.27;;
46719;SDS011;32452;51.382;-0.002;2023-10-13T10:57:59;15.80;;;6.38;;
46719;SDS011;32452;51.382;-0.002;2023-10-13T11:00:51;14.98;;;5.85;;
46719;SDS011;32452;51.382;-0.002;2023-10-13T11:03:59;17.23;;;6.18;;
46719;SDS011;32452;51.382;-0.002;2023-10-13T11:07:10;16.63;;;6.30;;
46719;SDS011;32452;51.382;-0.002;2023-10-13T11:10:09;21.52;;;7.00;;
46719;SDS011;32452;51.382;-0.002;2023-10-13T11:13:12;13.43;;;5.53;;
46719;SDS011;32452;51.382;-0.002;2023-10-13T11:16:06;17.23;;;5.57;;
46719;SDS011;32452;51.382;-0.002;2023-10-13T11:19:03;16.73;;;5.78;;
46719;SDS011;32452;51.382;-0.002;2023-10-13T11:21:52;20.63;;;5.60;;
46719;SDS011;32452;51.382;-0.002;2023-10-13T11:24:41;18.67;;;5.95;;
46719;SDS011;32452;51.382;-0.002;2023-10-13T11:27:33;16.92;;;6.35;;
46719;SDS011;32452;51.382;-0.002;2023-10-13T11:30:33;17.92;;;5.78;;
46719;SDS011;32452;51.382;-0.002;2023-10-13T11:33:22;17.05;;;5.00;;
46719;SDS011;32452;51.382;-0.002;2023-10-13T11:36:12;20.02;;;5.32;;
46719;SDS011;32452;51.382;-0.002;2023-10-13T11:39:02;16.45;;;5.75;;
46719;SDS011;32452;51.382;-0.002;2023-10-13T11:41:52;21.80;;;5.25;;
46719;SDS011;32452;51.382;-0.002;2023-10-13T11:44:41;19.48;;;5.38;;
46719;SDS011;32452;51.382;-0.002;2023-10-13T11:47:28;17.73;;;5.32;;
46719;SDS011;32452;51.382;-0.002;2023-10-13T11:50:33;17.90;;;4.78;;
46719;SDS011;32452;51.382;-0.002;2023-10-13T11:53:19;19.70;;;5.25;;
46719;SDS011;32452;51.382;-0.002;2023-10-13T11:56:05;18.75;;;5.10;;
46719;SDS011;32452;51.382;-0.002;2023-10-13T11:58:53;23.55;;;5.53;;
46719;SDS011;32452;51.382;-0.002;2023-10-13T12:01:39;22.88;;;5.90;;
46719;SDS011;32452;51.382;-0.002;2023-10-13T12:04:43;14.90;;;4.45;;
46719;SDS011;32452;51.382;-0.002;2023-10-13T12:07:34;21.63;;;4.82;;
46719;SDS011;32452;51.382;-0.002;2023-10-13T12:10:33;17.52;;;4.13;;
46719;SDS011;32452;51.382;-0.002;2023-10-13T12:13:20;15.13;;;4.45;;
46719;SDS011;32452;51.382;-0.002;2023-10-13T12:16:06;19.30;;;4.50;;
46719;SDS011;32452;51.382;-0.002;2023-10-13T12:18:54;12.80;;;4.03;;
46719;SDS011;32452;51.382;-0.002;2023-10-13T12:21:39;16.55;;;3.90;;
46719;SDS011;32452;51.382;-0.002;2023-10-13T12:24:28;22.02;;;4.68;;
46719;SDS011;32452;51.382;-0.002;2023-10-13T12:27:36;12.63;;;3.28;;
46719;SDS011;32452;51.382;-0.002;2023-10-13T12:30:30;14.48;;;3.35;;
46719;SDS011;32452;51.382;-0.002;2023-10-13T12:33:34;13.38;;;3.20;;
46719;SDS011;32452;51.382;-0.002;2023-10-13T12:36:22;15.80;;;3.63;;
46719;SDS011;32452;51.382;-0.002;2023-10-13T12:39:16;10.90;;;3.47;;
46719;SDS011;32452;51.382;-0.002;2023-10-13T12:42:20;16.05;;;3.22;;
46719;SDS011;32452;51.382;-0.002;2023-10-13T12:45:24;17.25;;;4.55;;
46719;SDS011;32452;51.382;-0.002;2023-10-13T12:48:28;16.88;;;4.50;;
46719;SDS011;32452;51.382;-0.002;2023-10-13T12:51:33;16.48;;;3.53;;
46719;SDS011;32452;51.382;-0.002;2023-10-13T12:54:18;21.88;;;4.78;;
46719;SDS011;32452;51.382;-0.002;2023-10-13T12:57:09;21.00;;;4.72;;
46719;SDS011;32452;51.382;-0.002;2023-10-13T12:59:58;17.45;;;4.03;;
46719;SDS011;32452;51.382;-0.002;2023-10-13T13:02:46;18.40;;;3.88;;
46719;SDS011;32452;51.382;-0.002;2023-10-13T13:05:36;17.08;;;3.70;;
46719;SDS011;32452;51.382;-0.002;2023-10-13T13:08:29;20.13;;;3.88;;
46719;SDS011;32452;51.382;-0.002;2023-10-13T13:11:20;20.00;;;3.15;;
46719;SDS011;32452;51.382;-0.002;2023-10-13T13:14:09;16.75;;;3.30;;
46719;SDS011;32452;51.382;-0.002;2023-10-13T13:16:57;16.50;;;3.05;;
46719;SDS011;32452;51.382;-0.002;2023-10-13T13:19:50;17.25;;;5.72;;
46719;SDS011;32452;51.382;-0.002;2023-10-13T13:22:39;21.17;;;3.65;;
46719;SDS011;32452;51.382;-0.002;2023-10-13T13:25:25;15.55;;;3.25;;
46719;SDS011;32452;51.382;-0.002;2023-10-13T13:28:11;12.60;;;2.90;;
46719;SDS011;32452;51.382;-0.002;2023-10-13T13:30:56;16.88;;;3.67;;
46719;SDS011;32452;51.382;-0.002;2023-10-13T13:33:42;17.08;;;3.03;;
46719;SDS011;32452;51.382;-0.002;2023-10-13T13:36:31;13.95;;;2.60;;
46719;SDS011;32452;51.382;-0.002;2023-10-13T13:39:18;10.02;;;2.90;;
46719;SDS011;32452;51.382;-0.002;2023-10-13T13:42:14;14.43;;;3.15;;
46719;SDS011;32452;51.382;-0.002;2023-10-13T13:45:02;19.00;;;3.83;;
46719;SDS011;32452;51.382;-0.002;2023-10-13T13:47:48;14.18;;;2.95;;
46719;SDS011;32452;51.382;-0.002;2023-10-13T13:50:38;16.00;;;3.22;;
46719;SDS011;32452;51.382;-0.002;2023-10-13T13:53:26;13.15;;;2.70;;
46719;SDS011;32452;51.382;-0.002;2023-10-13T13:56:16;15.07;;;3.67;;
46719;SDS011;32452;51.382;-0.002;2023-10-13T13:59:03;15.82;;;2.92;;
46719;SDS011;32452;51.382;-0.002;2023-10-13T14:01:53;19.45;;;4.25;;
46719;SDS011;32452;51.382;-0.002;2023-10-13T14:04:47;18.83;;;3.55;;
46719;SDS011;32452;51.382;-0.002;2023-10-13T14:07:36;15.48;;;2.83;;
46719;SDS011;32452;51.382;-0.002;2023-10-13T14:10:21;16.17;;;3.65;;
46719;SDS011;32452;51.382;-0.002;2023-10-13T14:13:30;13.70;;;2.95;;
46719;SDS011;32452;51.382;-0.002;2023-10-13T14:16:34;19.48;;;3.70;;
46719;SDS011;32452;51.382;-0.002;2023-10-13T14:19:22;14.68;;;3.38;;
46719;SDS011;32452;51.382;-0.002;2023-10-13T14:22:14;15.23;;;4.38;;
46719;SDS011;32452;51.382;-0.002;2023-10-13T14:24:59;13.40;;;3.00;;
46719;SDS011;32452;51.382;-0.002;2023-10-13T14:27:53;11.73;;;2.42;;
46719;SDS011;32452;51.382;-0.002;2023-10-13T14:30:43;17.02;;;2.47;;
46719;SDS011;32452;51.382;-0.002;2023-10-13T14:33:28;19.33;;;2.80;;
46719;SDS011;32452;51.382;-0.002;2023-10-13T14:36:16;16.33;;;3.38;;
46719;SDS011;32452;51.382;-0.002;2023-10-13T14:39:05;13.98;;;2.67;;
46719;SDS011;32452;51.382;-0.002;2023-10-13T14:41:54;13.13;;;2.55;;
46719;SDS011;32452;51.382;-0.002;2023-10-13T14:44:40;13.27;;;2.72;;
46719;SDS011;32452;51.382;-0.002;2023-10-13T14:47:25;14.80;;;2.70;;
46719;SDS011;32452;51.382;-0.002;2023-10-13T14:50:12;16.23;;;2.63;;
46719;SDS011;32452;51.382;-0.002;2023-10-13T14:53:16;13.98;;;2.60;;
46719;SDS011;32452;51.382;-0.002;2023-10-13T14:56:04;15.88;;;4.35;;
46719;SDS011;32452;51.382;-0.002;2023-10-13T14:58:50;14.45;;;2.83;;
46719;SDS011;32452;51.382;-0.002;2023-10-13T15:01:36;17.27;;;2.22;;
46719;SDS011;32452;51.382;-0.002;2023-10-13T15:04:21;18.65;;;3.60;;
46719;SDS011;32452;51.382;-0.002;2023-10-13T15:07:10;13.18;;;2.58;;
46719;SDS011;32452;51.382;-0.002;2023-10-13T15:09:55;15.95;;;3.40;;
46719;SDS011;32452;51.382;-0.002;2023-10-13T15:12:42;11.35;;;2.63;;
46719;SDS011;32452;51.382;-0.002;2023-10-13T15:15:29;11.57;;;3.28;;
46719;SDS011;32452;51.382;-0.002;2023-10-13T15:18:17;17.10;;;3.20;;
46719;SDS011;32452;51.382;-0.002;2023-10-13T15:21:03;19.20;;;4.10;;
46719;SDS011;32452;51.382;-0.002;2023-10-13T15:23:53;17.88;;;3.38;;
46719;SDS011;32452;51.382;-0.002;2023-10-13T15:26:43;17.45;;;3.38;;
46719;SDS011;32452;51.382;-0.002;2023-10-13T15:29:33;13.70;;;3.17;;
46719;SDS011;32452;51.382;-0.002;2023-10-13T15:32:22;14.93;;;2.60;;
46719;SDS011;32452;51.382;-0.002;2023-10-13T15:35:26;16.25;;;2.78;;
46719;SDS011;32452;51.382;-0.002;2023-10-13T15:38:13;10.40;;;2.60;;
46719;SDS011;32452;51.382;-0.002;2023-10-13T15:40:59;12.63;;;2.55;;
46719;SDS011;32452;51.382;-0.002;2023-10-13T15:43:48;12.73;;;3.75;;
46719;SDS011;32452;51.382;-0.002;2023-10-13T15:46:34;14.43;;;2.80;;
46719;SDS011;32452;51.382;-0.002;2023-10-13T15:49:40;12.13;;;2.20;;
46719;SDS011;32452;51.382;-0.002;2023-10-13T15:52:27;8.32;;;2.80;;
46719;SDS011;32452;51.382;-0.002;2023-10-13T15:55:14;10.70;;;2.50;;
46719;SDS011;32452;51.382;-0.002;2023-10-13T15:58:00;12.88;;;2.35;;
46719;SDS011;32452;51.382;-0.002;2023-10-13T16:00:45;14.52;;;2.10;;
46719;SDS011;32452;51.382;-0.002;2023-10-13T16:03:33;11.50;;;2.40;;
46719;SDS011;32452;51.382;-0.002;2023-10-13T16:06:19;12.27;;;2.42;;
46719;SDS011;32452;51.382;-0.002;2023-10-13T16:09:10;16.42;;;2.40;;
46719;SDS011;32452;51.382;-0.002;2023-10-13T16:12:05;12.77;;;2.33;;
46719;SDS011;32452;51.382;-0.002;2023-10-13T16:14:50;14.93;;;2.95;;
46719;SDS011;32452;51.382;-0.002;2023-10-13T16:17:40;12.30;;;1.88;;
46719;SDS011;32452;51.382;-0.002;2023-10-13T16:20:26;12.40;;;2.20;;
46719;SDS011;32452;51.382;-0.002;2023-10-13T16:23:12;15.70;;;2.75;;
46719;SDS011;32452;51.382;-0.002;2023-10-13T16:26:01;11.38;;;1.73;;
46719;SDS011;32452;51.382;-0.002;2023-10-13T16:28:52;13.52;;;2.08;;
46719;SDS011;32452;51.382;-0.002;2023-10-13T16:31:39;8.65;;;2.13;;
46719;SDS011;32452;51.382;-0.002;2023-10-13T16:34:24;16.40;;;3.38;;
46719;SDS011;32452;51.382;-0.002;2023-10-13T16:37:10;16.42;;;2.72;;
46719;SDS011;32452;51.382;-0.002;2023-10-13T16:39:56;12.48;;;2.25;;
46719;SDS011;32452;51.382;-0.002;2023-10-13T16:45:38;16.10;;;2.38;;
46719;SDS011;32452;51.382;-0.002;2023-10-13T16:48:30;15.48;;;2.55;;
46719;SDS011;32452;51.382;-0.002;2023-10-13T16:51:16;11.80;;;2.63;;
46719;SDS011;32452;51.382;-0.002;2023-10-13T16:54:02;13.68;;;2.75;;
46719;SDS011;32452;51.382;-0.002;2023-10-13T16:56:48;10.27;;;2.13;;
46719;SDS011;32452;51.382;-0.002;2023-10-13T16:59:35;15.55;;;2.30;;